createdAt,value
2024-01-11T00:00:40.418Z,50.37
2024-01-11T00:01:40.420Z,61.79
2024-01-11T00:02:40.448Z,62.43
2024-01-11T00:03:40.347Z,55.28
2024-01-11T00:04:40.361Z,58.77
2024-01-11T00:05:40.395Z,48.88
2024-01-11T00:06:40.402Z,53.09
2024-01-11T00:07:40.320Z,54.23
2024-01-11T00:08:40.340Z,53.53
2024-01-11T00:09:40.320Z,55.43
2024-01-11T00:10:40.298Z,46.94
2024-01-11T00:11:40.447Z,58.62
2024-01-11T00:12:40.286Z,48.16
2024-01-11T00:13:40.278Z,45.92
2024-01-11T00:14:40.323Z,45.72
2024-01-11T00:15:40.351Z,53.89
2024-01-11T00:16:40.283Z,59.18
2024-01-11T00:17:40.346Z,52.42
2024-01-11T00:18:40.374Z,49.20
2024-01-11T00:19:40.230Z,52.49
2024-01-11T00:20:40.340Z,51.77
2024-01-11T00:21:41.977Z,48.79
2024-01-11T00:22:40.213Z,56.88
2024-01-11T00:23:40.255Z,63.50
2024-01-11T00:24:40.203Z,60.90
2024-01-11T00:25:40.215Z,51.10
2024-01-11T00:26:40.259Z,52.50
2024-01-11T00:27:40.169Z,54.77
2024-01-11T00:28:40.167Z,46.70
2024-01-11T00:29:40.222Z,51.20
2024-01-11T00:30:40.199Z,65.14
2024-01-11T00:31:40.147Z,56.28
2024-01-11T00:32:40.197Z,50.27
2024-01-11T00:33:40.228Z,57.12
2024-01-11T00:34:40.166Z,56.39
2024-01-11T00:35:40.259Z,59.73
2024-01-11T00:36:40.115Z,49.75
2024-01-11T00:37:40.125Z,59.85
2024-01-11T00:38:40.134Z,61.47
2024-01-11T00:39:40.109Z,61.73
2024-01-11T00:40:41.099Z,57.94
2024-01-11T00:41:40.131Z,54.52
2024-01-11T00:42:40.062Z,55.04
2024-01-11T00:43:40.064Z,64.20
2024-01-11T00:44:40.157Z,64.02
2024-01-11T00:45:40.039Z,58.60
2024-01-11T00:46:40.042Z,58.48
2024-01-11T00:47:40.171Z,62.65
2024-01-11T00:48:40.132Z,58.83
2024-01-11T00:49:40.128Z,47.95
2024-01-11T00:50:40.076Z,62.57
2024-01-11T00:51:40.007Z,62.98
2024-01-11T00:52:39.985Z,60.20
2024-01-11T00:53:40.060Z,59.27
2024-01-11T00:54:40.006Z,54.83
2024-01-11T00:55:39.969Z,57.57
2024-01-11T00:56:40.071Z,63.14
2024-01-11T00:57:39.966Z,62.20
2024-01-11T00:58:39.946Z,50.76
2024-01-11T00:59:39.993Z,57.20
2024-01-11T01:00:40.010Z,56.67
2024-01-11T01:01:39.929Z,50.30
2024-01-11T01:02:40.032Z,57.11
2024-01-11T01:03:39.962Z,46.96
2024-01-11T01:04:39.941Z,47.40
2024-01-11T01:05:40.043Z,65.92
2024-01-11T01:06:39.914Z,59.44
2024-01-11T01:07:39.880Z,52.54
2024-01-11T01:08:39.926Z,51.73
2024-01-11T01:09:39.871Z,48.71
2024-01-11T01:10:39.907Z,60.65
2024-01-11T01:11:39.887Z,67.38
2024-01-11T01:12:39.854Z,67.25
2024-01-11T01:13:39.877Z,58.76
2024-01-11T01:14:39.909Z,52.92
2024-01-11T01:15:39.835Z,51.35
2024-01-11T01:16:39.830Z,51.00
2024-01-11T01:17:39.940Z,50.65
2024-01-11T01:18:39.973Z,58.83
2024-01-11T01:19:39.836Z,55.55
2024-01-11T01:20:39.914Z,50.72
2024-01-11T01:21:39.789Z,52.99
2024-01-11T01:22:39.788Z,54.01
2024-01-11T01:23:39.857Z,52.97
2024-01-11T01:24:39.804Z,61.11
2024-01-11T01:25:39.788Z,49.02
2024-01-11T01:26:39.838Z,48.88
2024-01-11T01:27:39.782Z,53.72
2024-01-11T01:28:39.761Z,64.46
2024-01-11T01:29:39.792Z,55.85
2024-01-11T01:30:39.774Z,51.68
2024-01-11T01:31:39.721Z,52.45
2024-01-11T01:32:39.816Z,48.97
2024-01-11T01:33:39.885Z,46.72
2024-01-11T01:34:39.760Z,54.06
2024-01-11T01:35:39.778Z,50.76
2024-01-11T01:36:39.697Z,55.39
2024-01-11T01:37:39.706Z,57.58
2024-01-11T01:38:39.703Z,49.05
2024-01-11T01:39:39.669Z,55.19
2024-01-11T01:40:39.656Z,51.06
2024-01-11T01:41:39.737Z,47.60
2024-01-11T01:42:39.672Z,53.42
2024-01-11T01:43:39.629Z,52.30
2024-01-11T01:44:39.675Z,61.59
2024-01-11T01:45:39.638Z,52.37
2024-01-11T01:46:39.686Z,49.25
2024-01-11T01:47:39.692Z,53.82
2024-01-11T01:48:39.799Z,57.00
2024-01-11T01:49:39.634Z,51.86
2024-01-11T01:50:39.617Z,62.78
2024-01-11T01:51:39.615Z,58.86
2024-01-11T01:52:39.566Z,50.02
2024-01-11T01:53:39.680Z,54.55
2024-01-11T01:54:39.557Z,52.68
2024-01-11T01:55:39.573Z,50.84
2024-01-11T01:56:39.643Z,50.55
2024-01-11T01:57:39.525Z,57.03
2024-01-11T01:58:39.520Z,50.33
2024-01-11T01:59:39.667Z,58.20
2024-01-11T02:00:39.633Z,56.22
2024-01-11T02:01:39.529Z,47.63
2024-01-11T02:02:39.752Z,55.60
2024-01-11T02:03:39.778Z,66.36
2024-01-11T02:04:39.477Z,50.67
2024-01-11T02:05:39.561Z,53.39
2024-01-11T02:06:39.578Z,54.92
2024-01-11T02:07:39.455Z,46.84
2024-01-11T02:08:39.503Z,55.42
2024-01-11T02:09:39.465Z,53.12
2024-01-11T02:10:39.455Z,53.96
2024-01-11T02:11:39.465Z,54.71
2024-01-11T02:12:39.422Z,49.52
2024-01-11T02:13:39.414Z,59.40
2024-01-11T02:14:39.540Z,53.54
2024-01-11T02:15:39.407Z,51.19
2024-01-11T02:16:39.390Z,57.71
2024-01-11T02:17:39.554Z,64.72
2024-01-11T02:18:39.462Z,52.16
2024-01-11T02:19:39.419Z,50.53
2024-01-11T02:20:39.522Z,58.32
2024-01-11T02:21:39.374Z,51.50
2024-01-11T02:22:39.368Z,50.53
2024-01-11T02:23:40.994Z,46.29
2024-01-11T02:24:39.370Z,55.48
2024-01-11T02:25:39.348Z,54.34
2024-01-11T02:26:39.355Z,47.72
2024-01-11T02:27:39.331Z,60.93
2024-01-11T02:28:39.334Z,49.52
2024-01-11T02:29:39.402Z,47.52
2024-01-11T02:30:39.342Z,53.17
2024-01-11T02:31:39.363Z,51.89
2024-01-11T02:32:39.334Z,46.22
2024-01-11T02:33:39.396Z,46.47
2024-01-11T02:34:39.467Z,45.41
2024-01-11T02:35:39.934Z,52.03
2024-01-11T02:36:39.254Z,58.77
2024-01-11T02:37:39.252Z,61.12
2024-01-11T02:38:39.300Z,54.96
2024-01-11T02:39:39.232Z,65.65
2024-01-11T02:40:39.228Z,53.77
2024-01-11T02:41:39.330Z,57.78
2024-01-11T02:42:39.253Z,52.29
2024-01-11T02:43:39.228Z,48.12
2024-01-11T02:44:39.268Z,52.12
2024-01-11T02:45:39.188Z,54.12
2024-01-11T02:46:39.181Z,54.51
2024-01-11T02:47:39.367Z,48.48
2024-01-11T02:48:39.270Z,56.17
2024-01-11T02:49:39.161Z,55.33
2024-01-11T02:50:39.171Z,53.40
2024-01-11T02:51:39.142Z,52.09
2024-01-11T02:52:39.162Z,46.80
2024-01-11T02:53:39.279Z,55.28
2024-01-11T02:54:39.121Z,47.61
2024-01-11T02:55:39.147Z,54.59
2024-01-11T02:56:39.174Z,51.72
2024-01-11T02:57:39.123Z,56.56
2024-01-11T02:58:39.095Z,52.92
2024-01-11T02:59:39.130Z,53.55
2024-01-11T03:00:39.117Z,58.18
2024-01-11T03:01:39.092Z,59.80
2024-01-11T03:02:39.763Z,57.75
2024-01-11T03:03:39.098Z,51.87
2024-01-11T03:04:39.049Z,52.94
2024-01-11T03:05:39.093Z,57.34
2024-01-11T03:06:39.118Z,54.06
2024-01-11T03:07:39.035Z,54.53
2024-01-11T03:08:39.094Z,55.49
2024-01-11T03:09:39.018Z,59.40
2024-01-11T03:10:39.040Z,62.34
2024-01-11T03:11:39.111Z,56.48
2024-01-11T03:12:38.986Z,49.10
2024-01-11T03:13:38.994Z,46.30
2024-01-11T03:14:39.038Z,51.16
2024-01-11T03:15:38.999Z,51.48
2024-01-11T03:16:38.962Z,51.81
2024-01-11T03:17:39.092Z,50.41
2024-01-11T03:18:39.120Z,56.34
2024-01-11T03:19:38.937Z,57.86
2024-01-11T03:20:39.024Z,48.25
2024-01-11T03:21:38.927Z,48.61
2024-01-11T03:22:38.916Z,61.39
2024-01-11T03:23:38.941Z,62.35
2024-01-11T03:24:38.932Z,55.32
2024-01-11T03:25:38.935Z,52.43
2024-01-11T03:26:38.990Z,58.29
2024-01-11T03:27:38.881Z,59.39
2024-01-11T03:28:38.875Z,54.35
2024-01-11T03:29:38.935Z,53.66
2024-01-11T03:30:38.909Z,60.85
2024-01-11T03:31:38.858Z,57.36
2024-01-11T03:32:39.077Z,54.96
2024-01-11T03:33:39.005Z,59.26
2024-01-11T03:34:38.894Z,55.47
2024-01-11T03:35:38.935Z,61.98
2024-01-11T03:36:38.830Z,60.42
2024-01-11T03:37:38.812Z,53.84
2024-01-11T03:38:38.852Z,57.30
2024-01-11T03:39:38.814Z,65.43
2024-01-11T03:40:38.813Z,63.57
2024-01-11T03:41:38.893Z,57.54
2024-01-11T03:42:38.772Z,61.88
2024-01-11T03:43:38.801Z,63.47
2024-01-11T03:44:38.975Z,55.66
2024-01-11T03:45:38.783Z,58.39
2024-01-11T03:46:38.744Z,65.41
2024-01-11T03:47:38.937Z,52.53
2024-01-11T03:48:39.038Z,58.02
2024-01-11T03:49:38.723Z,58.20
2024-01-11T03:50:38.842Z,62.92
2024-01-11T03:51:38.712Z,63.76
2024-01-11T03:52:39.701Z,56.47
2024-01-11T03:53:39.269Z,63.53
2024-01-11T03:54:38.763Z,56.32
2024-01-11T03:55:38.764Z,58.35
2024-01-11T03:56:38.731Z,62.36
2024-01-11T03:57:38.725Z,59.94
2024-01-11T03:58:38.689Z,56.46
2024-01-11T03:59:38.735Z,54.01
2024-01-11T04:00:38.686Z,61.32
2024-01-11T04:01:38.636Z,62.75
2024-01-11T04:02:38.709Z,50.53
2024-01-11T04:03:38.658Z,51.07
2024-01-11T04:04:38.616Z,59.17
2024-01-11T04:05:38.664Z,58.92
2024-01-11T04:06:38.687Z,54.11
2024-01-11T04:07:38.622Z,51.45
2024-01-11T04:08:38.723Z,55.77
2024-01-11T04:09:38.586Z,59.12
2024-01-11T04:10:38.577Z,60.63
2024-01-11T04:11:38.643Z,56.07
2024-01-11T04:12:38.626Z,61.40
2024-01-11T04:13:38.558Z,66.40
2024-01-11T04:14:38.592Z,64.52
2024-01-11T04:15:38.568Z,60.67
2024-01-11T04:16:38.567Z,59.16
2024-01-11T04:17:38.761Z,52.76
2024-01-11T04:18:38.734Z,61.45
2024-01-11T04:19:38.529Z,60.98
2024-01-11T04:20:38.536Z,62.98
2024-01-11T04:21:38.531Z,61.29
2024-01-11T04:22:38.508Z,60.77
2024-01-11T04:23:38.761Z,65.90
2024-01-11T04:24:38.509Z,65.07
2024-01-11T04:25:38.500Z,58.50
2024-01-11T04:26:38.612Z,60.00
2024-01-11T04:27:38.479Z,63.56
2024-01-11T04:28:38.492Z,67.30
2024-01-11T04:29:38.571Z,59.68
2024-01-11T04:30:38.549Z,63.58
2024-01-11T04:31:38.524Z,64.42
2024-01-11T04:32:38.553Z,65.32
2024-01-11T04:33:38.621Z,61.97
2024-01-11T04:34:38.617Z,63.50
2024-01-11T04:35:38.691Z,65.49
2024-01-11T04:36:38.497Z,64.58
2024-01-11T04:37:38.385Z,65.23
2024-01-11T04:38:38.515Z,62.10
2024-01-11T04:39:38.398Z,62.08
2024-01-11T04:40:38.385Z,65.17
2024-01-11T04:41:38.528Z,66.53
2024-01-11T04:42:38.348Z,64.18
2024-01-11T04:43:38.343Z,61.77
2024-01-11T04:44:38.446Z,66.66
2024-01-11T04:45:38.344Z,63.06
2024-01-11T04:46:38.329Z,62.66
2024-01-11T04:47:38.453Z,60.67
2024-01-11T04:48:38.341Z,61.47
2024-01-11T04:49:38.328Z,62.86
2024-01-11T04:50:38.330Z,63.35
2024-01-11T04:51:38.280Z,58.14
2024-01-11T04:52:38.315Z,64.73
2024-01-11T04:53:38.306Z,63.52
2024-01-11T04:54:38.289Z,56.97
2024-01-11T04:55:38.253Z,62.16
2024-01-11T04:56:38.310Z,63.89
2024-01-11T04:57:38.252Z,62.90
2024-01-11T04:58:38.281Z,58.33
2024-01-11T04:59:38.364Z,64.12
2024-01-11T05:00:38.246Z,59.01
2024-01-11T05:01:38.242Z,56.21
2024-01-11T05:02:38.331Z,58.36
2024-01-11T05:03:38.285Z,58.35
2024-01-11T05:04:38.232Z,58.74
2024-01-11T05:05:38.255Z,59.98
2024-01-11T05:06:38.212Z,55.49
2024-01-11T05:07:38.177Z,62.31
2024-01-11T05:08:38.229Z,59.43
2024-01-11T05:09:38.161Z,61.35
2024-01-11T05:10:38.149Z,57.05
2024-01-11T05:14:12.268Z,62.03
2024-01-11T05:15:12.220Z,63.53
2024-01-11T05:16:12.205Z,61.68
2024-01-11T05:17:12.223Z,62.05
2024-01-11T05:18:12.386Z,63.76
2024-01-11T05:19:12.294Z,61.76
2024-01-11T05:20:12.332Z,66.50
2024-01-11T05:21:12.173Z,64.53
2024-01-11T05:22:12.175Z,63.17
2024-01-11T05:23:12.228Z,61.64
2024-01-11T05:24:12.462Z,60.61
2024-01-11T05:25:12.151Z,62.10
2024-01-11T05:26:12.175Z,63.92
2024-01-11T05:27:12.156Z,62.29
2024-01-11T05:28:12.146Z,62.05
2024-01-11T05:29:12.137Z,62.79
2024-01-11T05:30:12.210Z,64.87
2024-01-11T05:31:12.217Z,63.15
2024-01-11T05:32:12.210Z,62.97
2024-01-11T05:33:12.210Z,64.91
2024-01-11T05:34:13.392Z,65.83
2024-01-11T05:35:13.240Z,63.63
2024-01-11T05:36:13.206Z,62.74
2024-01-11T05:37:13.209Z,61.21
2024-01-11T05:38:14.232Z,64.00
2024-01-11T05:39:13.190Z,59.84
2024-01-11T05:40:13.183Z,65.10
2024-01-11T05:41:13.214Z,60.77
2024-01-11T05:42:13.194Z,65.48
2024-01-11T05:43:13.169Z,65.20
2024-01-11T05:44:13.228Z,61.11
2024-01-11T05:45:13.157Z,64.13
2024-01-11T05:46:14.174Z,63.72
2024-01-11T05:47:13.185Z,60.93
2024-01-11T05:48:13.224Z,59.55
2024-01-11T05:49:13.152Z,59.30
2024-01-11T05:50:13.175Z,62.65
2024-01-11T05:51:14.137Z,60.30
2024-01-11T05:52:13.109Z,63.55
2024-01-11T05:53:13.095Z,66.41
2024-01-11T05:54:13.099Z,64.84
2024-01-11T05:55:13.084Z,66.19
2024-01-11T05:56:13.151Z,66.26
2024-01-11T05:57:13.079Z,63.50
2024-01-11T05:58:13.079Z,64.50
2024-01-11T05:59:13.141Z,64.68
2024-01-11T06:00:13.151Z,64.33
2024-01-11T06:01:13.082Z,61.68
2024-01-11T06:02:13.162Z,63.66
2024-01-11T06:03:13.047Z,62.96
2024-01-11T06:04:13.006Z,64.40
2024-01-11T06:05:14.093Z,65.83
2024-01-11T06:06:13.290Z,66.69
2024-01-11T06:07:13.017Z,63.77
2024-01-11T06:08:13.015Z,64.28
2024-01-11T06:09:12.982Z,66.17
2024-01-11T06:10:12.996Z,65.70
2024-01-11T06:11:13.108Z,66.32
2024-01-11T06:12:12.957Z,62.77
2024-01-11T06:13:12.956Z,68.30
2024-01-11T06:14:12.985Z,67.54
2024-01-11T06:15:12.966Z,64.12
2024-01-11T06:16:13.647Z,65.78
2024-01-11T06:17:13.976Z,64.35
2024-01-11T06:18:13.075Z,65.53
2024-01-11T06:19:13.057Z,66.76
2024-01-11T06:20:12.974Z,69.28
2024-01-11T06:21:12.912Z,67.00
2024-01-11T06:22:12.902Z,66.48
2024-01-11T06:23:12.951Z,67.34
2024-01-11T06:24:12.928Z,68.43
2024-01-11T06:25:12.869Z,68.81
2024-01-11T06:26:12.882Z,67.07
2024-01-11T06:27:13.852Z,61.10
2024-01-11T06:28:12.850Z,65.75
2024-01-11T06:29:12.887Z,63.09
2024-01-11T06:30:12.985Z,64.53
2024-01-11T06:31:12.881Z,62.80
2024-01-11T06:32:12.868Z,65.64
2024-01-11T06:33:12.934Z,62.94
2024-01-11T06:34:12.900Z,60.59
2024-01-11T06:35:12.846Z,62.96
2024-01-11T06:36:12.778Z,63.75
2024-01-11T06:37:12.822Z,59.17
2024-01-11T06:38:12.854Z,62.34
2024-01-11T06:39:12.763Z,62.88
2024-01-11T06:40:12.758Z,63.83
2024-01-11T06:41:12.796Z,61.88
2024-01-11T06:42:12.766Z,64.31
2024-01-11T06:43:12.887Z,61.45
2024-01-11T06:44:12.907Z,59.68
2024-01-11T06:45:12.735Z,59.90
2024-01-11T06:46:12.711Z,61.23
2024-01-11T06:47:12.801Z,61.25
2024-01-11T06:48:13.016Z,64.36
2024-01-11T06:49:12.904Z,63.32
2024-01-11T06:50:12.777Z,59.28
2024-01-11T06:51:12.690Z,62.86
2024-01-11T06:52:12.699Z,65.35
2024-01-11T06:53:12.727Z,62.00
2024-01-11T06:54:12.701Z,63.25
2024-01-11T06:55:12.731Z,65.45
2024-01-11T06:56:12.767Z,59.87
2024-01-11T06:57:12.740Z,64.53
2024-01-11T06:58:12.712Z,64.75
2024-01-11T06:59:12.746Z,61.84
2024-01-11T07:00:12.673Z,65.34
2024-01-11T07:01:12.725Z,60.82
2024-01-11T07:02:12.716Z,62.93
2024-01-11T07:03:12.697Z,63.68
2024-01-11T07:04:12.792Z,58.25
2024-01-11T07:05:12.710Z,62.76
2024-01-11T07:06:12.756Z,62.84
2024-01-11T07:07:12.565Z,64.70
2024-01-11T07:08:12.585Z,61.21
2024-01-11T07:09:12.557Z,63.51
2024-01-11T07:10:12.564Z,58.98
2024-01-11T07:11:12.690Z,63.25
2024-01-11T07:12:13.539Z,64.44
2024-01-11T07:13:12.528Z,65.47
2024-01-11T07:14:12.581Z,63.94
2024-01-11T07:15:12.578Z,65.22
2024-01-11T07:16:16.125Z,63.42
2024-01-11T07:17:13.519Z,57.94
2024-01-11T07:18:12.588Z,66.21
2024-01-11T07:19:12.532Z,62.27
2024-01-11T07:20:12.645Z,62.74
2024-01-11T07:21:12.482Z,63.28
2024-01-11T07:22:12.451Z,64.14
2024-01-11T07:23:12.470Z,62.83
2024-01-11T07:24:12.444Z,63.13
2024-01-11T07:25:12.445Z,63.10
2024-01-11T07:26:13.476Z,63.70
2024-01-11T07:27:12.423Z,64.41
2024-01-11T07:28:12.418Z,64.18
2024-01-11T07:29:12.467Z,61.99
2024-01-11T07:30:12.488Z,62.40
2024-01-11T07:31:12.396Z,64.79
2024-01-11T07:32:12.450Z,60.58
2024-01-11T07:33:12.525Z,62.35
2024-01-11T07:34:12.507Z,61.92
2024-01-11T07:35:15.215Z,63.22
2024-01-11T07:36:13.388Z,64.25
2024-01-11T07:37:12.399Z,60.73
2024-01-11T07:38:12.374Z,63.71
2024-01-11T07:39:13.380Z,64.08
2024-01-11T07:40:12.403Z,60.80
2024-01-11T07:41:12.356Z,64.21
2024-01-11T07:42:12.322Z,66.90
2024-01-11T07:43:12.349Z,65.92
2024-01-11T07:44:12.365Z,64.95
2024-01-11T07:45:12.296Z,60.23
2024-01-11T07:46:12.293Z,62.31
2024-01-11T07:47:12.301Z,61.80
2024-01-11T07:48:12.377Z,61.08
2024-01-11T07:49:12.371Z,64.39
2024-01-11T07:50:12.326Z,63.50
2024-01-11T07:51:12.257Z,59.26
2024-01-11T07:52:12.258Z,58.93
2024-01-11T07:53:12.346Z,64.87
2024-01-11T07:54:12.243Z,63.63
2024-01-11T07:55:12.243Z,64.04
2024-01-11T07:56:12.248Z,59.67
2024-01-11T07:57:12.210Z,65.25
2024-01-11T07:58:12.223Z,64.53
2024-01-11T07:59:12.216Z,65.40
2024-01-11T08:00:12.207Z,64.60
2024-01-11T08:01:12.202Z,61.48
2024-01-11T08:02:12.225Z,64.23
2024-01-11T08:03:12.428Z,60.88
2024-01-11T08:04:12.187Z,62.36
2024-01-11T08:05:12.257Z,60.61
2024-01-11T08:06:13.343Z,57.26
2024-01-11T08:07:12.212Z,65.04
2024-01-11T08:08:12.160Z,58.93
2024-01-11T08:09:13.148Z,60.43
2024-01-11T08:10:12.130Z,62.53
2024-01-11T08:11:12.133Z,62.51
2024-01-11T08:12:12.201Z,63.37
2024-01-11T08:13:12.093Z,56.09
2024-01-11T08:14:12.134Z,64.62
2024-01-11T08:15:12.073Z,60.98
2024-01-11T08:16:12.072Z,59.65
2024-01-11T08:17:12.134Z,60.58
2024-01-11T08:18:12.088Z,60.54
2024-01-11T08:19:12.197Z,61.02
2024-01-11T08:20:12.094Z,61.07
2024-01-11T08:21:12.035Z,59.17
2024-01-11T08:22:12.046Z,61.60
2024-01-11T08:23:12.038Z,64.56
2024-01-11T08:24:12.018Z,62.55
2024-01-11T08:25:12.006Z,64.25
2024-01-11T08:26:12.114Z,64.10
2024-01-11T08:27:11.993Z,61.17
2024-01-11T08:28:12.095Z,64.10
2024-01-11T08:29:12.027Z,64.30
2024-01-11T08:30:12.002Z,61.45
2024-01-11T08:31:12.097Z,61.88
2024-01-11T08:32:19.878Z,64.09
2024-01-11T08:33:14.024Z,61.68
2024-01-11T08:34:12.065Z,62.04
2024-01-11T08:35:12.163Z,66.28
2024-01-11T08:36:12.016Z,59.71
2024-01-11T08:37:11.911Z,63.33
2024-01-11T08:38:12.256Z,61.89
2024-01-11T08:39:11.891Z,59.37
2024-01-11T08:40:11.925Z,60.77
2024-01-11T08:41:11.950Z,65.36
2024-01-11T08:42:11.873Z,56.73
2024-01-11T08:43:11.863Z,64.35
2024-01-11T08:44:11.860Z,62.52
2024-01-11T08:45:11.872Z,63.11
2024-01-11T08:46:11.860Z,64.75
2024-01-11T08:47:11.855Z,63.55
2024-01-11T08:48:11.954Z,61.57
2024-01-11T08:49:11.869Z,66.74
2024-01-11T08:50:11.883Z,61.64
2024-01-11T08:51:11.804Z,62.98
2024-01-11T08:52:11.796Z,62.28
2024-01-11T08:53:11.870Z,62.86
2024-01-11T08:54:11.814Z,62.92
2024-01-11T08:55:11.793Z,62.04
2024-01-11T08:56:11.768Z,62.45
2024-01-11T08:57:11.758Z,60.54
2024-01-11T08:58:11.753Z,65.26
2024-01-11T08:59:11.812Z,59.18
2024-01-11T09:00:11.730Z,64.55
2024-01-11T09:01:11.736Z,63.14
2024-01-11T09:02:15.798Z,59.61
2024-01-11T09:03:13.331Z,65.11
2024-01-11T09:04:11.878Z,57.51
2024-01-11T09:05:11.764Z,65.42
2024-01-11T09:06:11.771Z,62.38
2024-01-11T09:07:11.685Z,62.22
2024-01-11T09:08:11.724Z,61.39
2024-01-11T09:09:11.685Z,62.03
2024-01-11T09:10:11.655Z,63.29
2024-01-11T09:11:11.767Z,59.90
2024-01-11T09:12:11.653Z,62.58
2024-01-11T09:13:13.217Z,62.81
2024-01-11T09:14:11.663Z,62.81
2024-01-11T09:15:11.630Z,57.11
2024-01-11T09:16:11.617Z,61.95
2024-01-11T09:17:11.645Z,63.27
2024-01-11T09:18:11.879Z,62.34
2024-01-11T09:19:11.642Z,63.91
2024-01-11T09:20:11.645Z,62.34
2024-01-11T09:21:11.574Z,65.02
2024-01-11T09:22:11.881Z,59.69
2024-01-11T09:23:11.655Z,60.60
2024-01-11T09:24:11.569Z,58.43
2024-01-11T09:25:11.540Z,60.63
2024-01-11T09:26:11.586Z,59.18
2024-01-11T09:27:11.557Z,61.93
2024-01-11T09:28:11.545Z,62.47
2024-01-11T09:29:11.534Z,62.84
2024-01-11T09:30:11.561Z,66.38
2024-01-11T09:31:11.529Z,63.30
2024-01-11T09:32:11.575Z,60.67
2024-01-11T09:33:11.597Z,61.79
2024-01-11T09:34:11.573Z,57.26
2024-01-11T09:35:13.908Z,64.20
2024-01-11T09:36:12.463Z,59.57
2024-01-11T09:37:11.483Z,63.49
2024-01-11T09:38:11.490Z,60.58
2024-01-11T09:39:11.584Z,61.49
2024-01-11T09:40:11.422Z,60.36
2024-01-11T09:41:14.103Z,63.98
2024-01-11T09:42:11.840Z,62.91
2024-01-11T09:43:11.415Z,60.61
2024-01-11T09:44:11.429Z,62.30
2024-01-11T09:45:11.406Z,62.58
2024-01-11T09:46:11.408Z,59.17
2024-01-11T09:47:12.626Z,64.48
2024-01-11T09:48:12.600Z,59.34
2024-01-11T09:49:11.414Z,64.04
2024-01-11T09:50:11.403Z,60.60
2024-01-11T09:51:11.365Z,62.27
2024-01-11T09:52:11.345Z,61.01
2024-01-11T09:53:11.368Z,61.30
2024-01-11T09:54:11.322Z,64.44
2024-01-11T09:55:11.310Z,60.47
2024-01-11T09:56:11.490Z,62.28
2024-01-11T09:57:11.306Z,59.50
2024-01-11T09:58:11.286Z,61.02
2024-01-11T09:59:11.878Z,60.88
2024-01-11T10:00:11.301Z,66.06
2024-01-11T10:01:11.337Z,66.15
2024-01-11T10:02:11.376Z,60.79
2024-01-11T10:03:11.253Z,62.41
2024-01-11T10:04:11.312Z,59.33
2024-01-11T10:05:11.818Z,59.58
2024-01-11T10:06:11.253Z,59.88
2024-01-11T10:07:11.310Z,60.83
2024-01-11T10:08:11.229Z,63.74
2024-01-11T10:09:11.221Z,63.13
2024-01-11T10:10:11.242Z,60.35
2024-01-11T10:11:11.223Z,59.71
2024-01-11T10:12:11.183Z,62.49
2024-01-11T10:13:11.177Z,64.46
2024-01-11T10:14:11.227Z,60.63
2024-01-11T10:15:11.444Z,61.10
2024-01-11T10:16:11.167Z,64.74
2024-01-11T10:17:14.948Z,61.84
2024-01-11T10:18:13.371Z,62.14
2024-01-11T10:19:11.299Z,61.81
2024-01-11T10:20:11.290Z,65.15
2024-01-11T10:21:11.198Z,62.43
2024-01-11T10:22:11.111Z,63.03
2024-01-11T10:23:11.165Z,63.40
2024-01-11T10:24:11.120Z,61.86
2024-01-11T10:25:11.086Z,58.90
2024-01-11T10:26:11.174Z,64.46
2024-01-11T10:27:11.078Z,62.99
2024-01-11T10:28:11.092Z,62.73
2024-01-11T10:29:11.231Z,65.54
2024-01-11T10:30:11.086Z,59.29
2024-01-11T10:31:11.057Z,60.12
2024-01-11T10:32:11.126Z,64.00
2024-01-11T10:33:11.283Z,65.88
2024-01-11T10:34:11.107Z,62.65
2024-01-11T10:35:11.148Z,63.41
2024-01-11T10:36:11.142Z,65.50
2024-01-11T10:37:11.004Z,62.42
2024-01-11T10:38:11.041Z,61.96
2024-01-11T10:39:10.999Z,54.16
2024-01-11T10:40:10.971Z,61.19
2024-01-11T10:41:11.020Z,61.23
2024-01-11T10:42:10.990Z,64.84
2024-01-11T10:43:10.992Z,60.80
2024-01-11T10:44:10.993Z,63.26
2024-01-11T10:45:10.941Z,65.17
2024-01-11T10:46:10.979Z,57.49
2024-01-11T10:47:10.971Z,63.85
2024-01-11T10:48:11.019Z,61.13
2024-01-11T10:49:10.951Z,58.60
2024-01-11T10:50:10.978Z,57.19
2024-01-11T10:51:10.894Z,64.11
2024-01-11T10:52:10.920Z,60.59
2024-01-11T10:53:10.920Z,62.73
2024-01-11T10:54:10.871Z,62.41
2024-01-11T10:55:10.886Z,64.96
2024-01-11T10:56:11.005Z,62.37
2024-01-11T10:57:10.870Z,61.39
2024-01-11T10:58:10.840Z,64.07
2024-01-11T10:59:10.858Z,58.78
2024-01-11T11:00:10.822Z,63.43
2024-01-11T11:01:10.863Z,62.22
2024-01-11T11:02:10.897Z,60.43
2024-01-11T11:03:10.922Z,64.99
2024-01-11T11:04:10.798Z,59.48
2024-01-11T11:05:10.876Z,64.20
2024-01-11T11:06:10.903Z,64.59
2024-01-11T11:07:10.806Z,60.57
2024-01-11T11:08:10.793Z,63.11
2024-01-11T11:09:10.771Z,61.69
2024-01-11T11:10:10.799Z,61.26
2024-01-11T11:11:10.795Z,60.20
2024-01-11T11:12:43.388Z,61.30
2024-01-11T11:13:10.727Z,52.81
2024-01-11T11:14:10.754Z,61.82
2024-01-11T11:15:10.733Z,65.14
2024-01-11T11:16:10.715Z,62.67
2024-01-11T11:17:10.728Z,62.59
2024-01-11T11:18:10.705Z,62.21
2024-01-11T11:19:10.734Z,63.39
2024-01-11T11:20:10.727Z,64.13
2024-01-11T11:21:10.665Z,65.21
2024-01-11T11:22:10.679Z,59.90
2024-01-11T11:23:10.690Z,63.49
2024-01-11T11:24:10.666Z,65.04
2024-01-11T11:25:10.655Z,63.65
2024-01-11T11:26:10.804Z,63.97
2024-01-11T11:27:10.620Z,60.20
2024-01-11T11:28:10.608Z,62.61
2024-01-11T11:29:10.658Z,62.26
2024-01-11T11:30:10.610Z,62.12
2024-01-11T11:31:10.587Z,63.51
2024-01-11T11:32:10.606Z,66.54
2024-01-11T11:33:10.675Z,60.72
2024-01-11T11:34:10.639Z,61.02
2024-01-11T11:35:10.575Z,63.48
2024-01-11T11:36:10.555Z,65.59
2024-01-11T11:37:10.541Z,61.65
2024-01-11T11:38:10.693Z,67.26
2024-01-11T11:39:10.571Z,62.68
2024-01-11T11:40:10.532Z,64.64
2024-01-11T11:41:10.525Z,62.96
2024-01-11T11:42:10.517Z,62.94
2024-01-11T11:43:10.532Z,62.85
2024-01-11T11:44:10.509Z,65.18
2024-01-11T11:45:10.497Z,63.82
2024-01-11T11:46:10.564Z,59.49
2024-01-11T11:47:10.510Z,62.23
2024-01-11T11:48:10.591Z,56.74
2024-01-11T11:49:10.489Z,64.38
2024-01-11T11:50:10.548Z,60.56
2024-01-11T11:51:10.478Z,65.81
2024-01-11T11:52:10.475Z,61.59
2024-01-11T11:53:10.487Z,62.83
2024-01-11T11:54:10.422Z,64.88
2024-01-11T11:55:10.420Z,60.67
2024-01-11T11:56:10.443Z,60.90
2024-01-11T11:57:10.436Z,63.85
2024-01-11T11:58:10.403Z,60.28
2024-01-11T11:59:10.409Z,62.40
2024-01-11T12:00:10.389Z,62.55
2024-01-11T12:01:10.392Z,63.64
2024-01-11T12:02:10.423Z,62.30
2024-01-11T12:03:10.361Z,62.08
2024-01-11T12:04:10.362Z,62.33
2024-01-11T12:05:10.476Z,62.15
2024-01-11T12:06:10.569Z,62.01
2024-01-11T12:07:10.413Z,58.15
2024-01-11T12:08:10.348Z,60.92
2024-01-11T12:09:10.314Z,59.82
2024-01-11T12:10:10.299Z,63.51
2024-01-11T12:11:10.339Z,61.86
2024-01-11T12:12:15.645Z,64.60
2024-01-11T12:13:12.310Z,59.42
2024-01-11T12:14:10.309Z,62.46
2024-01-11T12:15:10.264Z,66.51
2024-01-11T12:16:10.304Z,62.37
2024-01-11T12:17:10.277Z,56.64
2024-01-11T12:18:10.350Z,65.48
2024-01-11T12:19:10.380Z,77.71
2024-01-11T12:20:10.270Z,64.51
2024-01-11T12:21:10.257Z,61.62
2024-01-11T12:22:10.221Z,63.85
2024-01-11T12:23:10.220Z,63.11
2024-01-11T12:24:10.198Z,64.57
2024-01-11T12:25:10.232Z,60.83
2024-01-11T12:26:10.229Z,60.56
2024-01-11T12:27:10.179Z,65.24
2024-01-11T12:28:10.194Z,63.94
2024-01-11T12:29:10.247Z,65.26
2024-01-11T12:30:10.295Z,64.36
2024-01-11T12:31:10.148Z,61.46
2024-01-11T12:32:10.156Z,62.56
2024-01-11T12:33:10.238Z,61.52
2024-01-11T12:34:10.224Z,65.72
2024-01-11T12:35:10.215Z,63.06
2024-01-11T12:36:10.143Z,63.49
2024-01-11T12:37:10.122Z,62.87
2024-01-11T12:38:10.129Z,64.90
2024-01-11T12:39:10.115Z,65.21
2024-01-11T12:40:10.121Z,63.44
2024-01-11T12:41:10.121Z,63.72
2024-01-11T12:42:10.073Z,64.69
2024-01-11T12:43:10.063Z,63.51
2024-01-11T12:44:10.069Z,63.41
2024-01-11T12:45:10.072Z,65.17
2024-01-11T12:46:10.041Z,80.62
2024-01-11T12:47:10.098Z,76.70
2024-01-11T12:48:10.316Z,62.50
2024-01-11T12:49:10.162Z,57.94
2024-01-11T12:50:10.072Z,62.04
2024-01-11T12:51:17.114Z,63.77
2024-01-11T12:52:12.008Z,65.22
2024-01-11T12:53:10.036Z,59.29
2024-01-11T12:54:10.008Z,61.03
2024-01-11T12:55:09.976Z,64.02